sensor_id;sensor_type;location;lat;lon;timestamp;pressure;altitude;pressure_sealevel;temperature;humidity
55410;BME280;41279;43.546;16.426;2022-12-04T00:02:20;55414.50;;;-146.77;100.00
55410;BME280;41279;43.546;16.426;2022-12-04T00:04:47;55232.19;;;-146.77;100.00
55410;BME280;41279;43.546;16.426;2022-12-04T00:07:12;55302.31;;;-146.77;100.00
55410;BME280;41279;43.546;16.426;2022-12-04T00:09:37;55394.47;;;-146.77;100.00
55410;BME280;41279;43.546;16.426;2022-12-04T00:12:03;57915.72;;;-146.77;100.00
55410;BME280;41279;43.546;16.426;2022-12-04T00:14:28;58122.22;;;-146.77;100.00
55410;BME280;41279;43.546;16.426;2022-12-04T00:16:54;58296.66;;;-146.77;100.00
55410;BME280;41279;43.546;16.426;2022-12-04T00:19:19;58290.66;;;-146.77;100.00
55410;BME280;41279;43.546;16.426;2022-12-04T00:21:44;58677.63;;;-146.77;100.00
55410;BME280;41279;43.546;16.426;2022-12-04T00:24:10;58344.78;;;-146.77;100.00
55410;BME280;41279;43.546;16.426;2022-12-04T00:26:35;100341.50;;;-146.77;100.00
55410;BME280;41279;43.546;16.426;2022-12-04T00:29:01;77067.63;;;-146.77;100.00
55410;BME280;41279;43.546;16.426;2022-12-04T00:31:27;79905.00;;;-146.77;100.00
55410;BME280;41279;43.546;16.426;2022-12-04T00:33:54;78873.00;;;-146.77;100.00
55410;BME280;41279;43.546;16.426;2022-12-04T00:36:22;79646.97;;;-146.77;100.00
55410;BME280;41279;43.546;16.426;2022-12-04T00:38:48;82486.16;;;-146.77;100.00
55410;BME280;41279;43.546;16.426;2022-12-04T00:41:16;81195.38;;;-146.77;100.00
55410;BME280;41279;43.546;16.426;2022-12-04T00:43:42;91533.34;;;-146.77;100.00
55410;BME280;41279;43.546;16.426;2022-12-04T00:46:07;88687.75;;;-146.77;100.00
55410;BME280;41279;43.546;16.426;2022-12-04T00:48:33;91015.81;;;-146.77;100.00
55410;BME280;41279;43.546;16.426;2022-12-04T00:51:04;89463.63;;;-146.77;100.00
55410;BME280;41279;43.546;16.426;2022-12-04T00:53:30;86361.03;;;-146.77;100.00
55410;BME280;41279;43.546;16.426;2022-12-04T00:55:55;82744.38;;;-146.77;100.00
55410;BME280;41279;43.546;16.426;2022-12-04T00:58:21;86361.03;;;-146.77;100.00
55410;BME280;41279;43.546;16.426;2022-12-04T01:00:46;85844.19;;;-146.77;100.00
55410;BME280;41279;43.546;16.426;2022-12-04T01:03:11;91015.81;;;-146.77;100.00
55410;BME280;41279;43.546;16.426;2022-12-04T01:05:42;88946.38;;;-146.77;100.00
55410;BME280;41279;43.546;16.426;2022-12-04T01:08:09;92309.75;;;-146.77;100.00
55410;BME280;41279;43.546;16.426;2022-12-04T01:10:38;92309.75;;;-146.77;100.00
55410;BME280;41279;43.546;16.426;2022-12-04T01:13:04;91274.56;;;-146.77;100.00
55410;BME280;41279;43.546;16.426;2022-12-04T01:15:29;92568.59;;;-146.77;100.00
55410;BME280;41279;43.546;16.426;2022-12-04T01:17:55;93345.22;;;-146.77;100.00
55410;BME280;41279;43.546;16.426;2022-12-04T01:20:20;91792.13;;;-146.77;100.00
55410;BME280;41279;43.546;16.426;2022-12-04T01:22:46;93345.22;;;-146.77;100.00
55410;BME280;41279;43.546;16.426;2022-12-04T01:25:11;87912.03;;;-146.77;100.00
55410;BME280;41279;43.546;16.426;2022-12-04T01:27:37;87394.97;;;-146.77;100.00
55410;BME280;41279;43.546;16.426;2022-12-04T01:30:03;91533.34;;;-146.77;100.00
55410;BME280;41279;43.546;16.426;2022-12-04T01:32:28;93086.34;;;-146.77;100.00
55410;BME280;41279;43.546;16.426;2022-12-04T01:34:53;92050.94;;;-146.77;100.00
55410;BME280;41279;43.546;16.426;2022-12-04T01:37:19;89722.28;;;-146.77;100.00
55410;BME280;41279;43.546;16.426;2022-12-04T01:39:44;82744.38;;;-146.77;100.00
55410;BME280;41279;43.546;16.426;2022-12-04T01:42:12;79905.00;;;-146.77;100.00
55410;BME280;41279;43.546;16.426;2022-12-04T01:44:41;80937.28;;;-146.77;100.00
55410;BME280;41279;43.546;16.426;2022-12-04T01:47:09;81969.81;;;-146.77;100.00
55410;BME280;41279;43.546;16.426;2022-12-04T01:49:45;84552.31;;;-146.77;100.00
55410;BME280;41279;43.546;16.426;2022-12-04T01:52:19;79646.97;;;-146.77;100.00
55410;BME280;41279;43.546;16.426;2022-12-04T01:54:58;80421.09;;;-146.77;100.00
55410;BME280;41279;43.546;16.426;2022-12-04T01:57:27;75005.34;;;-146.77;100.00
55410;BME280;41279;43.546;16.426;2022-12-04T02:00:03;75005.34;;;-146.77;100.00
55410;BME280;41279;43.546;16.426;2022-12-04T02:02:33;76551.94;;;-146.77;100.00
55410;BME280;41279;43.546;16.426;2022-12-04T02:05:00;73459.31;;;-146.77;100.00
55410;BME280;41279;43.546;16.426;2022-12-04T02:07:26;75263.06;;;-146.77;100.00
55410;BME280;41279;43.546;16.426;2022-12-04T02:09:52;77067.63;;;-146.77;100.00
55410;BME280;41279;43.546;16.426;2022-12-04T02:18:21;75005.34;;;-146.77;100.00
55410;BME280;41279;43.546;16.426;2022-12-04T02:26:36;75520.81;;;-146.77;100.00
55410;BME280;41279;43.546;16.426;2022-12-04T02:31:39;72324.34;;;-146.77;100.00
55410;BME280;41279;43.546;16.426;2022-12-04T02:34:13;75778.56;;;-146.77;100.00
55410;BME280;41279;43.546;16.426;2022-12-04T02:36:51;75778.56;;;-146.77;100.00
55410;BME280;41279;43.546;16.426;2022-12-04T02:39:23;74232.25;;;-146.77;100.00
55410;BME280;41279;43.546;16.426;2022-12-04T02:41:56;75778.56;;;-146.77;100.00
55410;BME280;41279;43.546;16.426;2022-12-04T02:44:35;69152.56;;;-146.77;100.00
55410;BME280;41279;43.546;16.426;2022-12-04T02:47:06;73974.59;;;-146.77;100.00
55410;BME280;41279;43.546;16.426;2022-12-04T02:49:37;73201.72;;;-146.77;100.00
55410;BME280;41279;43.546;16.426;2022-12-04T02:52:09;74232.25;;;-146.77;100.00
55410;BME280;41279;43.546;16.426;2022-12-04T02:54:41;73974.59;;;-146.77;100.00
55410;BME280;41279;43.546;16.426;2022-12-04T02:57:16;75778.56;;;-146.77;100.00
55410;BME280;41279;43.546;16.426;2022-12-04T02:59:44;74489.94;;;-146.77;100.00
55410;BME280;41279;43.546;16.426;2022-12-04T03:02:33;83777.38;;;-146.77;100.00
55410;BME280;41279;43.546;16.426;2022-12-04T03:05:05;85327.38;;;-146.77;100.00
55410;BME280;41279;43.546;16.426;2022-12-04T03:10:13;88687.75;;;-146.77;100.00
55410;BME280;41279;43.546;16.426;2022-12-04T03:12:50;86877.97;;;-146.77;100.00
55410;BME280;41279;43.546;16.426;2022-12-04T03:15:23;81969.81;;;-146.77;100.00
55410;BME280;41279;43.546;16.426;2022-12-04T03:20:31;65191.84;;;-146.77;100.00
55410;BME280;41279;43.546;16.426;2022-12-04T03:23:02;64804.22;;;-146.77;100.00
55410;BME280;41279;43.546;16.426;2022-12-04T03:25:39;62332.78;;;-146.77;100.00
55410;BME280;41279;43.546;16.426;2022-12-04T03:28:12;72259.97;;;-146.77;100.00
55410;BME280;41279;43.546;16.426;2022-12-04T03:30:43;72320.31;;;-146.77;100.00
55410;BME280;41279;43.546;16.426;2022-12-04T03:33:19;68089.16;;;-146.77;100.00
55410;BME280;41279;43.546;16.426;2022-12-04T03:36:04;72006.44;;;-146.77;100.00
55410;BME280;41279;43.546;16.426;2022-12-04T03:38:39;69432.03;;;-146.77;100.00
55410;BME280;41279;43.546;16.426;2022-12-04T03:43:51;69019.88;;;-146.77;100.00
55410;BME280;41279;43.546;16.426;2022-12-04T03:46:29;72686.53;;;-146.77;100.00
55410;BME280;41279;43.546;16.426;2022-12-04T03:53:56;77325.47;;;-146.77;100.00
55410;BME280;41279;43.546;16.426;2022-12-04T03:56:28;74489.94;;;-146.77;100.00
55410;BME280;41279;43.546;16.426;2022-12-04T03:58:59;71583.97;;;-146.77;100.00
55410;BME280;41279;43.546;16.426;2022-12-04T04:01:37;71982.31;;;-146.77;100.00
55410;BME280;41279;43.546;16.426;2022-12-04T04:04:06;73201.72;;;-146.77;100.00
55410;BME280;41279;43.546;16.426;2022-12-04T04:06:45;78615.03;;;-146.77;100.00
55410;BME280;41279;43.546;16.426;2022-12-04T04:09:16;75778.56;;;-146.77;100.00
55410;BME280;41279;43.546;16.426;2022-12-04T04:11:57;70461.59;;;-146.77;100.00
55410;BME280;41279;43.546;16.426;2022-12-04T04:14:41;74489.94;;;-146.77;100.00
55410;BME280;41279;43.546;16.426;2022-12-04T04:17:29;73459.31;;;-146.77;100.00
55410;BME280;41279;43.546;16.426;2022-12-04T04:20:20;70127.75;;;-146.77;100.00
55410;BME280;41279;43.546;16.426;2022-12-04T04:23:08;66921.53;;;-146.77;100.00
55410;BME280;41279;43.546;16.426;2022-12-04T04:25:55;68157.50;;;-146.77;100.00
55410;BME280;41279;43.546;16.426;2022-12-04T04:28:37;64814.28;;;-146.77;100.00
55410;BME280;41279;43.546;16.426;2022-12-04T04:33:29;61893.28;;;-146.77;100.00
55410;BME280;41279;43.546;16.426;2022-12-04T04:36:07;66740.69;;;-146.77;100.00
55410;BME280;41279;43.546;16.426;2022-12-04T04:38:38;64332.31;;;-146.77;100.00
55410;BME280;41279;43.546;16.426;2022-12-04T04:41:18;64764.06;;;-146.77;100.00
55410;BME280;41279;43.546;16.426;2022-12-04T04:46:14;60262.06;;;-146.77;100.00
55410;BME280;41279;43.546;16.426;2022-12-04T04:48:46;61233.09;;;-146.77;100.00
55410;BME280;41279;43.546;16.426;2022-12-04T04:51:12;61375.53;;;-146.77;100.00
55410;BME280;41279;43.546;16.426;2022-12-04T04:53:43;58643.53;;;-146.77;100.00
55410;BME280;41279;43.546;16.426;2022-12-04T04:56:10;59760.59;;;-146.77;100.00
55410;BME280;41279;43.546;16.426;2022-12-04T04:58:35;58427.00;;;-146.77;100.00
55410;BME280;41279;43.546;16.426;2022-12-04T05:03:27;57578.94;;;-146.77;100.00
55410;BME280;41279;43.546;16.426;2022-12-04T05:05:52;56839.28;;;-146.77;100.00
55410;BME280;41279;43.546;16.426;2022-12-04T05:08:17;57151.97;;;-146.77;100.00
55410;BME280;41279;43.546;16.426;2022-12-04T05:10:43;58342.78;;;-146.77;100.00
55410;BME280;41279;43.546;16.426;2022-12-04T05:13:11;56656.91;;;-146.77;100.00
55410;BME280;41279;43.546;16.426;2022-12-04T05:15:36;56769.13;;;-146.77;100.00
55410;BME280;41279;43.546;16.426;2022-12-04T05:18:02;56829.25;;;-146.77;100.00
55410;BME280;41279;43.546;16.426;2022-12-04T05:20:27;56442.47;;;-146.77;100.00
55410;BME280;41279;43.546;16.426;2022-12-04T05:22:53;56183.94;;;-146.77;100.00
55410;BME280;41279;43.546;16.426;2022-12-04T05:25:18;56033.66;;;-146.77;100.00
55410;BME280;41279;43.546;16.426;2022-12-04T05:27:43;56256.09;;;-146.77;100.00
55410;BME280;41279;43.546;16.426;2022-12-04T05:30:10;55610.84;;;-146.77;100.00
55410;BME280;41279;43.546;16.426;2022-12-04T05:32:35;55602.84;;;-146.77;100.00
55410;BME280;41279;43.546;16.426;2022-12-04T05:35:01;55354.41;;;-146.77;100.00
55410;BME280;41279;43.546;16.426;2022-12-04T05:37:26;55508.66;;;-146.77;100.00
55410;BME280;41279;43.546;16.426;2022-12-04T05:39:52;55302.31;;;-146.77;100.00
55410;BME280;41279;43.546;16.426;2022-12-04T05:42:17;55606.84;;;-146.77;100.00
55410;BME280;41279;43.546;16.426;2022-12-04T05:44:43;55546.75;;;-146.77;100.00
55410;BME280;41279;43.546;16.426;2022-12-04T05:47:08;55386.47;;;-146.77;100.00
55410;BME280;41279;43.546;16.426;2022-12-04T05:49:34;55292.28;;;-146.77;100.00
55410;BME280;41279;43.546;16.426;2022-12-04T05:52:01;55015.81;;;-146.77;100.00
55410;BME280;41279;43.546;16.426;2022-12-04T05:54:27;55366.41;;;-146.77;100.00
55410;BME280;41279;43.546;16.426;2022-12-04T05:56:52;55003.78;;;-146.77;100.00
55410;BME280;41279;43.546;16.426;2022-12-04T05:59:18;54691.28;;;-146.77;100.00
55410;BME280;41279;43.546;16.426;2022-12-04T06:01:43;55033.84;;;-146.77;100.00
55410;BME280;41279;43.546;16.426;2022-12-04T06:04:10;54737.38;;;-146.77;100.00
55410;BME280;41279;43.546;16.426;2022-12-04T06:06:36;54673.25;;;-146.77;100.00
55410;BME280;41279;43.546;16.426;2022-12-04T06:09:03;55045.88;;;-146.77;100.00
55410;BME280;41279;43.546;16.426;2022-12-04T06:11:31;55017.81;;;-146.77;100.00
55410;BME280;41279;43.546;16.426;2022-12-04T06:13:59;54785.44;;;-146.77;100.00
55410;BME280;41279;43.546;16.426;2022-12-04T06:16:30;54691.28;;;-146.77;100.00
55410;BME280;41279;43.546;16.426;2022-12-04T06:18:58;54613.16;;;-146.77;100.00
55410;BME280;41279;43.546;16.426;2022-12-04T06:21:25;54132.44;;;-146.77;100.00
55410;BME280;41279;43.546;16.426;2022-12-04T06:23:51;54849.53;;;-146.77;100.00
55410;BME280;41279;43.546;16.426;2022-12-04T06:26:18;55350.38;;;-146.77;100.00
55410;BME280;41279;43.546;16.426;2022-12-04T06:28:44;55847.28;;;-146.77;100.00
55410;BME280;41279;43.546;16.426;2022-12-04T06:31:11;57109.88;;;-146.77;100.00
55410;BME280;41279;43.546;16.426;2022-12-04T06:33:37;57649.09;;;-146.77;100.00
55410;BME280;41279;43.546;16.426;2022-12-04T06:36:08;57350.41;;;-146.77;100.00
55410;BME280;41279;43.546;16.426;2022-12-04T06:38:34;57190.06;;;-146.77;100.00
55410;BME280;41279;43.546;16.426;2022-12-04T06:41:08;55168.06;;;-146.77;100.00
55410;BME280;41279;43.546;16.426;2022-12-04T06:43:34;55909.41;;;-146.77;100.00
55410;BME280;41279;43.546;16.426;2022-12-04T06:46:00;56167.91;;;-146.77;100.00
55410;BME280;41279;43.546;16.426;2022-12-04T06:48:26;57699.22;;;-146.77;100.00
55410;BME280;41279;43.546;16.426;2022-12-04T06:50:59;57619.03;;;-146.77;100.00
55410;BME280;41279;43.546;16.426;2022-12-04T06:53:25;57358.44;;;-146.77;100.00
55410;BME280;41279;43.546;16.426;2022-12-04T06:55:52;58850.09;;;-146.77;100.00
55410;BME280;41279;43.546;16.426;2022-12-04T06:58:17;62505.41;;;-146.77;100.00
55410;BME280;41279;43.546;16.426;2022-12-04T07:00:43;67257.13;;;-146.77;100.00
55410;BME280;41279;43.546;16.426;2022-12-04T07:03:08;69468.22;;;-146.77;100.00
55410;BME280;41279;43.546;16.426;2022-12-04T07:05:33;65914.97;;;-146.77;100.00
55410;BME280;41279;43.546;16.426;2022-12-04T07:07:59;68515.28;;;-146.77;100.00
55410;BME280;41279;43.546;16.426;2022-12-04T07:10:24;71608.09;;;-146.77;100.00
55410;BME280;41279;43.546;16.426;2022-12-04T07:12:49;76809.78;;;-146.77;100.00
55410;BME280;41279;43.546;16.426;2022-12-04T07:15:15;73201.72;;;-146.77;100.00
55410;BME280;41279;43.546;16.426;2022-12-04T07:17:47;109428.75;;;-146.77;100.00
55410;BME280;41279;43.546;16.426;2022-12-04T07:20:13;89722.28;;;-146.77;100.00
55410;BME280;41279;43.546;16.426;2022-12-04T07:22:38;86877.97;;;-146.77;100.00
55410;BME280;41279;43.546;16.426;2022-12-04T07:25:03;85069.00;;;-146.77;100.00
55410;BME280;41279;43.546;16.426;2022-12-04T07:27:30;85069.00;;;-146.77;100.00
55410;BME280;41279;43.546;16.426;2022-12-04T07:29:55;87653.50;;;-146.77;100.00
55410;BME280;41279;43.546;16.426;2022-12-04T07:32:20;85844.19;;;-146.77;100.00
55410;BME280;41279;43.546;16.426;2022-12-04T07:34:46;81453.50;;;-146.77;100.00
55410;BME280;41279;43.546;16.426;2022-12-04T07:37:11;82486.16;;;-146.77;100.00
55410;BME280;41279;43.546;16.426;2022-12-04T07:39:37;82227.97;;;-146.77;100.00
55410;BME280;41279;43.546;16.426;2022-12-04T07:42:02;83002.59;;;-146.77;100.00
55410;BME280;41279;43.546;16.426;2022-12-04T07:44:30;117236.00;;;-146.77;100.00
55410;BME280;41279;43.546;16.426;2022-12-04T07:47:02;113329.50;;;-146.77;100.00
55410;BME280;41279;43.546;16.426;2022-12-04T07:49:27;108649.03;;;-146.77;100.00
55410;BME280;41279;43.546;16.426;2022-12-04T07:51:53;109948.63;;;-146.77;100.00
55410;BME280;41279;43.546;16.426;2022-12-04T07:54:18;109168.81;;;-146.77;100.00
55410;BME280;41279;43.546;16.426;2022-12-04T07:56:43;106310.81;;;-146.77;100.00
55410;BME280;41279;43.546;16.426;2022-12-04T07:59:09;104493.13;;;-146.77;100.00
55410;BME280;41279;43.546;16.426;2022-12-04T08:01:34;101379.00;;;-146.77;100.00
55410;BME280;41279;43.546;16.426;2022-12-04T08:03:59;102157.31;;;-146.77;100.00
55410;BME280;41279;43.546;16.426;2022-12-04T08:06:26;100341.50;;;-146.77;100.00
55410;BME280;41279;43.546;16.426;2022-12-04T08:08:52;103973.94;;;-146.77;100.00
55410;BME280;41279;43.546;16.426;2022-12-04T08:11:22;104752.75;;;-146.77;100.00
55410;BME280;41279;43.546;16.426;2022-12-04T08:13:55;101897.88;;;-146.77;100.00
55410;BME280;41279;43.546;16.426;2022-12-04T08:16:21;98526.47;;;-146.77;100.00
55410;BME280;41279;43.546;16.426;2022-12-04T08:18:47;96971.41;;;-146.77;100.00
55410;BME280;41279;43.546;16.426;2022-12-04T08:21:15;101119.59;;;-146.77;100.00
55410;BME280;41279;43.546;16.426;2022-12-04T08:23:42;97748.88;;;-146.77;100.00
55410;BME280;41279;43.546;16.426;2022-12-04T08:26:09;98526.47;;;-146.77;100.00
55410;BME280;41279;43.546;16.426;2022-12-04T08:28:35;94380.94;;;-146.77;100.00
55410;BME280;41279;43.546;16.426;2022-12-04T08:31:12;97230.53;;;-146.77;100.00
55410;BME280;41279;43.546;16.426;2022-12-04T08:33:38;100341.50;;;-146.77;100.00
55410;BME280;41279;43.546;16.426;2022-12-04T08:36:09;98785.72;;;-146.77;100.00
55410;BME280;41279;43.546;16.426;2022-12-04T08:38:35;96971.41;;;-146.77;100.00
55410;BME280;41279;43.546;16.426;2022-12-04T08:41:05;94380.94;;;-146.77;100.00
55410;BME280;41279;43.546;16.426;2022-12-04T08:43:31;95157.91;;;-146.77;100.00
55410;BME280;41279;43.546;16.426;2022-12-04T08:45:58;98785.72;;;-146.77;100.00
55410;BME280;41279;43.546;16.426;2022-12-04T08:48:25;98526.47;;;-146.77;100.00
55410;BME280;41279;43.546;16.426;2022-12-04T08:50:50;92309.75;;;-146.77;100.00
55410;BME280;41279;43.546;16.426;2022-12-04T08:53:16;91015.81;;;-146.77;100.00
55410;BME280;41279;43.546;16.426;2022-12-04T08:55:41;99563.53;;;-146.77;100.00
55410;BME280;41279;43.546;16.426;2022-12-04T08:58:07;97748.88;;;-146.77;100.00
55410;BME280;41279;43.546;16.426;2022-12-04T09:00:32;95675.97;;;-146.77;100.00
55410;BME280;41279;43.546;16.426;2022-12-04T09:02:57;92568.59;;;-146.77;100.00
55410;BME280;41279;43.546;16.426;2022-12-04T09:05:23;98526.47;;;-146.77;100.00
55410;BME280;41279;43.546;16.426;2022-12-04T09:07:48;98267.25;;;-146.77;100.00
55410;BME280;41279;43.546;16.426;2022-12-04T09:10:13;98267.25;;;-146.77;100.00
55410;BME280;41279;43.546;16.426;2022-12-04T09:12:39;97748.88;;;-146.77;100.00
55410;BME280;41279;43.546;16.426;2022-12-04T09:15:05;96453.19;;;-146.77;100.00
55410;BME280;41279;43.546;16.426;2022-12-04T09:17:31;94380.94;;;-146.77;100.00
55410;BME280;41279;43.546;16.426;2022-12-04T09:19:58;94898.91;;;-146.77;100.00
55410;BME280;41279;43.546;16.426;2022-12-04T09:22:23;93345.22;;;-146.77;100.00
55410;BME280;41279;43.546;16.426;2022-12-04T09:24:48;92050.94;;;-146.77;100.00
55410;BME280;41279;43.546;16.426;2022-12-04T09:27:14;93863.03;;;-146.77;100.00
55410;BME280;41279;43.546;16.426;2022-12-04T09:29:41;92827.47;;;-146.77;100.00
55410;BME280;41279;43.546;16.426;2022-12-04T09:32:06;93086.34;;;-146.77;100.00
55410;BME280;41279;43.546;16.426;2022-12-04T09:34:31;90239.66;;;-146.77;100.00
55410;BME280;41279;43.546;16.426;2022-12-04T09:36:57;90757.06;;;-146.77;100.00
55410;BME280;41279;43.546;16.426;2022-12-04T09:39:22;87912.03;;;-146.77;100.00
55410;BME280;41279;43.546;16.426;2022-12-04T09:44:30;89722.28;;;-146.77;100.00
55410;BME280;41279;43.546;16.426;2022-12-04T09:47:01;84035.69;;;-146.77;100.00
55410;BME280;41279;43.546;16.426;2022-12-04T09:51:55;80679.19;;;-146.77;100.00
55410;BME280;41279;43.546;16.426;2022-12-04T09:54:26;76551.94;;;-146.77;100.00
55410;BME280;41279;43.546;16.426;2022-12-04T09:56:58;76551.94;;;-146.77;100.00
55410;BME280;41279;43.546;16.426;2022-12-04T09:59:26;75778.56;;;-146.77;100.00
55410;BME280;41279;43.546;16.426;2022-12-04T10:01:59;75520.81;;;-146.77;100.00
55410;BME280;41279;43.546;16.426;2022-12-04T10:04:26;71523.63;;;-146.77;100.00
55410;BME280;41279;43.546;16.426;2022-12-04T10:07:11;75263.06;;;-146.77;100.00
55410;BME280;41279;43.546;16.426;2022-12-04T10:09:45;77583.34;;;-146.77;100.00
55410;BME280;41279;43.546;16.426;2022-12-04T10:15:22;76809.78;;;-146.77;100.00
55410;BME280;41279;43.546;16.426;2022-12-04T10:25:25;75005.34;;;-146.77;100.00
55410;BME280;41279;43.546;16.426;2022-12-04T10:28:03;65675.94;;;-146.77;100.00
55410;BME280;41279;43.546;16.426;2022-12-04T10:30:36;67086.31;;;-146.77;100.00
55410;BME280;41279;43.546;16.426;2022-12-04T10:33:30;70783.38;;;-146.77;100.00
55410;BME280;41279;43.546;16.426;2022-12-04T10:35:58;73600.22;;;-146.77;100.00
55410;BME280;41279;43.546;16.426;2022-12-04T10:38:41;73314.41;;;-146.77;100.00
55410;BME280;41279;43.546;16.426;2022-12-04T10:43:50;79646.97;;;-146.77;100.00
55410;BME280;41279;43.546;16.426;2022-12-04T10:46:32;71262.09;;;-146.77;100.00
55410;BME280;41279;43.546;16.426;2022-12-04T10:49:04;75778.56;;;-146.77;100.00
55410;BME280;41279;43.546;16.426;2022-12-04T10:51:41;71489.41;;;-146.77;100.00
55410;BME280;41279;43.546;16.426;2022-12-04T10:57:04;79130.97;;;-146.77;100.00
55410;BME280;41279;43.546;16.426;2022-12-04T10:59:30;79646.97;;;-146.77;100.00
55410;BME280;41279;43.546;16.426;2022-12-04T11:04:36;75778.56;;;-146.77;100.00
55410;BME280;41279;43.546;16.426;2022-12-04T11:07:04;76036.34;;;-146.77;100.00
55410;BME280;41279;43.546;16.426;2022-12-04T11:09:31;76551.94;;;-146.77;100.00
55410;BME280;41279;43.546;16.426;2022-12-04T11:12:06;79130.97;;;-146.77;100.00
55410;BME280;41279;43.546;16.426;2022-12-04T11:14:32;80421.09;;;-146.77;100.00
55410;BME280;41279;43.546;16.426;2022-12-04T11:17:05;77067.63;;;-146.77;100.00
55410;BME280;41279;43.546;16.426;2022-12-04T11:19:33;76036.34;;;-146.77;100.00
55410;BME280;41279;43.546;16.426;2022-12-04T11:22:14;79388.97;;;-146.77;100.00
55410;BME280;41279;43.546;16.426;2022-12-04T11:24:41;80937.28;;;-146.77;100.00
55410;BME280;41279;43.546;16.426;2022-12-04T11:27:31;75005.34;;;-146.77;100.00
55410;BME280;41279;43.546;16.426;2022-12-04T11:30:00;80937.28;;;-146.77;100.00
55410;BME280;41279;43.546;16.426;2022-12-04T11:32:28;83260.84;;;-146.77;100.00
55410;BME280;41279;43.546;16.426;2022-12-04T11:34:58;81453.50;;;-146.77;100.00
55410;BME280;41279;43.546;16.426;2022-12-04T11:37:31;81195.38;;;-146.77;100.00
55410;BME280;41279;43.546;16.426;2022-12-04T11:39:58;83002.59;;;-146.77;100.00
55410;BME280;41279;43.546;16.426;2022-12-04T11:42:27;83777.38;;;-146.77;100.00
55410;BME280;41279;43.546;16.426;2022-12-04T11:44:59;83777.38;;;-146.77;100.00
55410;BME280;41279;43.546;16.426;2022-12-04T11:47:30;84035.69;;;-146.77;100.00
55410;BME280;41279;43.546;16.426;2022-12-04T11:50:03;80679.19;;;-146.77;100.00
55410;BME280;41279;43.546;16.426;2022-12-04T12:00:29;76294.13;;;-146.77;100.00
55410;BME280;41279;43.546;16.426;2022-12-04T12:03:15;83519.09;;;-146.77;100.00
55410;BME280;41279;43.546;16.426;2022-12-04T12:16:46;69659.22;;;-146.77;100.00
55410;BME280;41279;43.546;16.426;2022-12-04T12:20:08;68893.22;;;-146.77;100.00
55410;BME280;41279;43.546;16.426;2022-12-04T12:25:32;82227.97;;;-146.77;100.00
55410;BME280;41279;43.546;16.426;2022-12-04T12:28:28;78099.16;;;-146.77;100.00
55410;BME280;41279;43.546;16.426;2022-12-04T12:34:07;74489.94;;;-146.77;100.00
55410;BME280;41279;43.546;16.426;2022-12-04T12:36:40;66839.16;;;-146.77;100.00
55410;BME280;41279;43.546;16.426;2022-12-04T12:39:22;72646.28;;;-146.77;100.00
55410;BME280;41279;43.546;16.426;2022-12-04T12:41:52;76036.34;;;-146.77;100.00
55410;BME280;41279;43.546;16.426;2022-12-04T12:44:26;78615.03;;;-146.77;100.00
55410;BME280;41279;43.546;16.426;2022-12-04T12:47:00;83002.59;;;-146.77;100.00
55410;BME280;41279;43.546;16.426;2022-12-04T12:49:59;81453.50;;;-146.77;100.00
55410;BME280;41279;43.546;16.426;2022-12-04T12:52:37;83519.09;;;-146.77;100.00
55410;BME280;41279;43.546;16.426;2022-12-04T12:55:15;79130.97;;;-146.77;100.00
55410;BME280;41279;43.546;16.426;2022-12-04T12:57:47;81711.66;;;-146.77;100.00
55410;BME280;41279;43.546;16.426;2022-12-04T13:00:21;77583.34;;;-146.77;100.00
55410;BME280;41279;43.546;16.426;2022-12-04T13:02:59;68117.28;;;-146.77;100.00
55410;BME280;41279;43.546;16.426;2022-12-04T13:05:29;67560.56;;;-146.77;100.00
55410;BME280;41279;43.546;16.426;2022-12-04T13:10:46;61564.16;;;-146.77;100.00
55410;BME280;41279;43.546;16.426;2022-12-04T13:13:25;62758.31;;;-146.77;100.00
55410;BME280;41279;43.546;16.426;2022-12-04T13:15:56;61273.22;;;-146.77;100.00
55410;BME280;41279;43.546;16.426;2022-12-04T13:18:39;63115.63;;;-146.77;100.00
55410;BME280;41279;43.546;16.426;2022-12-04T13:21:07;61375.53;;;-146.77;100.00
55410;BME280;41279;43.546;16.426;2022-12-04T13:31:45;63159.78;;;-146.77;100.00
55410;BME280;41279;43.546;16.426;2022-12-04T13:39:46;78099.16;;;-146.77;100.00
55410;BME280;41279;43.546;16.426;2022-12-04T13:42:24;73632.41;;;-146.77;100.00
55410;BME280;41279;43.546;16.426;2022-12-04T13:45:27;84552.31;;;-146.77;100.00
55410;BME280;41279;43.546;16.426;2022-12-04T13:47:58;72392.75;;;-146.77;100.00
55410;BME280;41279;43.546;16.426;2022-12-04T13:50:34;73936.34;;;-146.77;100.00
55410;BME280;41279;43.546;16.426;2022-12-04T13:53:01;77583.34;;;-146.77;100.00
55410;BME280;41279;43.546;16.426;2022-12-04T13:55:35;74747.63;;;-146.77;100.00
55410;BME280;41279;43.546;16.426;2022-12-04T14:00:38;78873.00;;;-146.77;100.00
55410;BME280;41279;43.546;16.426;2022-12-04T14:06:42;74177.91;;;-146.77;100.00
55410;BME280;41279;43.546;16.426;2022-12-04T14:09:38;73612.28;;;-146.77;100.00
55410;BME280;41279;43.546;16.426;2022-12-04T14:12:08;67699.22;;;-146.77;100.00
55410;BME280;41279;43.546;16.426;2022-12-04T14:14:43;63466.94;;;-146.77;100.00
55410;BME280;41279;43.546;16.426;2022-12-04T14:17:28;64995.03;;;-146.77;100.00
55410;BME280;41279;43.546;16.426;2022-12-04T14:19:56;68575.59;;;-146.77;100.00
55410;BME280;41279;43.546;16.426;2022-12-04T14:22:41;67988.66;;;-146.77;100.00